createdAt,value
2022-07-31T00:02:03.984Z,18.84
2022-07-31T00:07:08.294Z,18.74
2022-07-31T00:12:10.395Z,18.69
2022-07-31T00:17:14.580Z,18.64
2022-07-31T00:22:18.724Z,18.60
2022-07-31T00:27:22.904Z,18.56
2022-07-31T00:32:27.051Z,18.54
2022-07-31T00:37:31.211Z,18.51
2022-07-31T00:42:35.353Z,18.42
2022-07-31T00:47:39.527Z,18.33
2022-07-31T00:52:45.682Z,18.20
2022-07-31T00:57:47.860Z,18.01
2022-07-31T01:02:51.996Z,17.99
2022-07-31T01:07:56.185Z,17.93
2022-07-31T01:13:00.294Z,17.82
2022-07-31T01:18:04.486Z,17.77
2022-07-31T01:23:08.631Z,17.67
2022-07-31T01:28:12.827Z,17.60
2022-07-31T01:33:16.946Z,17.46
2022-07-31T01:38:21.085Z,17.37
2022-07-31T01:43:25.413Z,17.25
2022-07-31T01:48:29.440Z,17.27
2022-07-31T01:53:33.602Z,17.30
2022-07-31T01:58:35.854Z,17.29
2022-07-31T02:03:43.676Z,17.29
2022-07-31T02:08:42.288Z,17.31
2022-07-31T02:13:46.607Z,17.31
2022-07-31T02:18:48.685Z,17.28
2022-07-31T02:23:53.178Z,17.25
2022-07-31T02:34:01.199Z,17.20
2022-07-31T02:39:05.377Z,17.13
2022-07-31T02:44:09.526Z,17.05
2022-07-31T02:49:13.721Z,17.00
2022-07-31T02:54:17.801Z,16.89
2022-07-31T02:59:22.006Z,16.85
2022-07-31T03:04:26.134Z,16.82
2022-07-31T03:09:30.335Z,16.72
2022-07-31T03:14:34.457Z,16.65
2022-07-31T03:19:39.207Z,16.64
2022-07-31T03:29:47.100Z,16.71
2022-07-31T03:34:49.269Z,16.79
2022-07-31T03:40:00.417Z,16.87
2022-07-31T03:45:11.549Z,16.88
2022-07-31T03:50:22.749Z,16.87
2022-07-31T03:55:33.994Z,16.94
2022-07-31T04:00:45.069Z,17.00
2022-07-31T04:05:54.324Z,17.07
2022-07-31T04:10:58.488Z,17.14
2022-07-31T04:16:02.678Z,17.27
2022-07-31T04:21:06.810Z,17.32
2022-07-31T04:26:10.943Z,17.36
2022-07-31T04:31:15.133Z,17.40
2022-07-31T04:36:29.604Z,17.50
2022-07-31T04:41:23.453Z,17.61
2022-07-31T04:46:27.619Z,17.92
2022-07-31T04:51:31.752Z,18.15
2022-07-31T04:56:35.954Z,18.40
2022-07-31T05:01:40.180Z,18.71
2022-07-31T05:06:44.222Z,19.01
2022-07-31T05:11:48.412Z,19.16
2022-07-31T05:16:52.538Z,19.37
2022-07-31T05:22:01.772Z,19.52
2022-07-31T05:27:00.900Z,19.67
2022-07-31T05:32:05.029Z,19.74
2022-07-31T05:37:09.190Z,19.71
2022-07-31T05:42:13.364Z,19.75
2022-07-31T05:47:17.533Z,19.79
2022-07-31T05:52:19.789Z,19.84
2022-07-31T05:57:33.118Z,19.95
2022-07-31T06:02:28.117Z,20.06
2022-07-31T06:07:32.278Z,20.13
2022-07-31T06:12:36.402Z,20.22
2022-07-31T06:17:44.366Z,20.24
2022-07-31T06:22:44.758Z,20.28
2022-07-31T06:27:52.023Z,20.28
2022-07-31T06:32:53.051Z,20.26
2022-07-31T06:37:57.229Z,20.28
2022-07-31T06:43:06.346Z,20.52
2022-07-31T06:48:05.547Z,20.87
2022-07-31T06:53:09.695Z,21.07
2022-07-31T06:58:13.859Z,21.08
2022-07-31T07:03:17.990Z,21.15
2022-07-31T07:08:22.186Z,21.16
2022-07-31T07:13:26.310Z,21.19
2022-07-31T07:18:30.505Z,21.33
2022-07-31T07:23:34.658Z,21.46
2022-07-31T07:28:38.811Z,21.41
2022-07-31T07:33:43.210Z,21.49
2022-07-31T07:38:45.215Z,21.55
2022-07-31T07:43:51.661Z,21.45
2022-07-31T07:48:51.829Z,21.44
2022-07-31T07:53:55.810Z,21.48
2022-07-31T07:58:59.992Z,21.50
2022-07-31T08:04:04.134Z,21.70
2022-07-31T08:09:08.301Z,21.70
2022-07-31T08:14:15.294Z,21.77
2022-07-31T08:19:16.646Z,21.70
2022-07-31T08:24:20.789Z,21.87
2022-07-31T08:29:28.814Z,21.77
2022-07-31T08:34:31.449Z,21.89
2022-07-31T08:39:33.240Z,22.01
2022-07-31T08:44:37.416Z,21.92
2022-07-31T08:49:41.575Z,21.84
2022-07-31T08:54:46.033Z,21.82
2022-07-31T08:59:49.864Z,21.74
2022-07-31T09:04:54.150Z,21.62
2022-07-31T09:09:58.185Z,21.75
2022-07-31T09:15:02.394Z,22.08
2022-07-31T09:20:06.528Z,22.15
2022-07-31T09:25:10.671Z,22.17
2022-07-31T09:30:14.920Z,22.15
2022-07-31T09:35:17.120Z,22.16
2022-07-31T09:40:21.476Z,22.21
2022-07-31T09:45:23.525Z,22.44
2022-07-31T09:50:27.693Z,22.70
2022-07-31T09:55:31.854Z,22.70
2022-07-31T10:00:36.051Z,22.91
2022-07-31T10:05:40.192Z,22.95
2022-07-31T10:10:44.342Z,23.04
2022-07-31T10:15:48.490Z,23.10
2022-07-31T10:20:52.662Z,23.11
2022-07-31T10:25:56.784Z,23.15
2022-07-31T10:31:01.008Z,23.23
2022-07-31T10:36:05.097Z,23.38
2022-07-31T10:41:09.467Z,23.62
2022-07-31T10:46:13.493Z,23.64
2022-07-31T10:51:17.728Z,23.99
2022-07-31T10:56:21.797Z,23.76
2022-07-31T11:01:26.000Z,23.79
2022-07-31T11:06:30.095Z,23.64
2022-07-31T11:11:34.251Z,23.85
2022-07-31T11:16:38.398Z,24.22
2022-07-31T11:21:42.935Z,24.58
2022-07-31T11:26:46.691Z,24.45
2022-07-31T11:31:48.995Z,24.35
2022-07-31T11:36:53.231Z,24.42
2022-07-31T11:41:55.424Z,24.28
2022-07-31T11:46:59.560Z,24.14
2022-07-31T11:52:03.741Z,24.17
2022-07-31T11:57:08.030Z,24.35
2022-07-31T12:02:12.035Z,24.09
2022-07-31T12:07:16.204Z,23.85
2022-07-31T12:12:20.377Z,23.62
2022-07-31T12:17:24.527Z,23.64
2022-07-31T12:22:28.673Z,23.65
2022-07-31T12:27:32.822Z,23.68
2022-07-31T12:32:36.992Z,23.99
2022-07-31T12:37:41.143Z,24.52
2022-07-31T12:42:45.355Z,24.78
2022-07-31T12:47:51.138Z,25.09
2022-07-31T12:52:53.653Z,25.17
2022-07-31T12:57:57.765Z,25.46
2022-07-31T13:03:01.988Z,25.59
2022-07-31T13:08:06.084Z,25.56
2022-07-31T13:13:10.274Z,25.63
2022-07-31T13:18:14.430Z,25.71
2022-07-31T13:23:18.586Z,25.75
2022-07-31T13:28:20.877Z,25.37
2022-07-31T13:33:25.013Z,25.14
2022-07-31T13:38:27.298Z,25.11
2022-07-31T13:43:31.982Z,25.12
2022-07-31T13:48:33.727Z,25.05
2022-07-31T13:53:37.873Z,25.11
2022-07-31T13:58:42.033Z,25.29
2022-07-31T14:03:46.211Z,25.41
2022-07-31T14:08:50.756Z,25.74
2022-07-31T14:13:54.520Z,25.61
2022-07-31T14:18:58.681Z,25.54
2022-07-31T14:24:02.827Z,25.58
2022-07-31T14:29:07.274Z,25.32
2022-07-31T14:34:11.161Z,25.41
2022-07-31T14:39:15.293Z,25.87
2022-07-31T14:44:21.321Z,26.17
2022-07-31T14:49:23.672Z,26.04
2022-07-31T14:54:27.777Z,25.77
2022-07-31T14:59:32.306Z,25.46
2022-07-31T15:04:36.108Z,25.26
2022-07-31T15:09:40.284Z,25.51
2022-07-31T15:14:44.516Z,26.42
2022-07-31T15:19:46.707Z,27.05
2022-07-31T15:24:51.045Z,27.16
2022-07-31T15:30:03.693Z,26.80
2022-07-31T15:34:57.262Z,26.97
2022-07-31T15:40:03.718Z,26.43
2022-07-31T15:45:03.712Z,26.04
2022-07-31T15:50:07.942Z,25.77
2022-07-31T15:55:12.244Z,25.42
2022-07-31T16:00:16.343Z,24.61
2022-07-31T16:05:20.326Z,23.49
2022-07-31T16:10:24.494Z,24.34
2022-07-31T16:15:28.662Z,25.33
2022-07-31T16:20:32.787Z,24.33
2022-07-31T16:25:36.980Z,24.35
2022-07-31T16:30:41.128Z,24.44
2022-07-31T16:35:45.316Z,24.88
2022-07-31T16:40:53.274Z,24.69
2022-07-31T16:45:53.631Z,24.32
2022-07-31T16:50:57.784Z,23.87
2022-07-31T16:56:02.233Z,23.88
2022-07-31T17:01:06.345Z,23.73
2022-07-31T17:06:10.217Z,23.73
2022-07-31T17:11:14.403Z,23.67
2022-07-31T17:16:18.531Z,23.70
2022-07-31T17:21:22.967Z,23.40
2022-07-31T17:26:26.860Z,23.26
2022-07-31T17:31:29.156Z,23.12
2022-07-31T17:36:33.302Z,22.99
2022-07-31T17:41:37.477Z,22.11
2022-07-31T17:46:48.149Z,21.17
2022-07-31T17:51:58.775Z,20.80
2022-07-31T17:56:52.092Z,20.71
2022-07-31T18:01:54.114Z,20.57
2022-07-31T18:06:58.282Z,20.58
2022-07-31T18:12:02.792Z,20.57
2022-07-31T18:17:06.586Z,20.53
2022-07-31T18:22:10.709Z,20.51
2022-07-31T18:32:19.038Z,20.24
2022-07-31T18:37:23.216Z,20.22
2022-07-31T18:42:27.379Z,20.13
2022-07-31T18:47:31.520Z,20.11
2022-07-31T18:52:35.704Z,20.19
2022-07-31T18:57:39.858Z,20.24
2022-07-31T19:02:44.018Z,20.19
2022-07-31T19:07:48.924Z,20.16
2022-07-31T19:12:52.317Z,20.18
2022-07-31T19:18:01.813Z,20.13
2022-07-31T19:22:58.743Z,20.16
2022-07-31T19:28:02.924Z,20.14
2022-07-31T19:33:05.172Z,20.11
2022-07-31T19:38:09.332Z,20.07
2022-07-31T19:43:13.511Z,20.08
2022-07-31T19:48:17.898Z,19.99
2022-07-31T19:53:21.800Z,20.07
2022-07-31T19:58:26.584Z,20.14
2022-07-31T20:03:30.295Z,20.12
2022-07-31T20:08:34.303Z,20.09
2022-07-31T20:13:38.488Z,20.03
2022-07-31T20:18:42.634Z,20.05
2022-07-31T20:23:48.969Z,20.04
2022-07-31T20:28:50.932Z,20.02
2022-07-31T20:33:56.707Z,20.02
2022-07-31T20:38:59.288Z,19.96
2022-07-31T20:44:03.417Z,20.02
2022-07-31T20:49:07.646Z,19.98
2022-07-31T20:54:11.721Z,19.93
2022-07-31T20:59:16.066Z,19.86
2022-07-31T21:04:20.013Z,19.87
2022-07-31T21:09:24.204Z,19.79
2022-07-31T21:14:28.512Z,19.77
2022-07-31T21:19:30.629Z,19.77
2022-07-31T21:24:34.768Z,19.74
2022-07-31T21:29:37.058Z,19.71
2022-07-31T21:34:41.220Z,19.73
2022-07-31T21:39:45.410Z,19.73
2022-07-31T21:44:49.526Z,19.73
2022-07-31T21:49:58.163Z,19.70
2022-07-31T21:54:57.867Z,19.67
2022-07-31T22:00:02.067Z,19.62
2022-07-31T22:05:06.189Z,19.61
2022-07-31T22:10:10.354Z,19.60
2022-07-31T22:15:15.640Z,19.55
2022-07-31T22:20:18.703Z,19.52
2022-07-31T22:25:22.816Z,19.51
2022-07-31T22:30:26.984Z,19.49
2022-07-31T22:35:31.135Z,19.46
2022-07-31T22:40:35.333Z,19.45
2022-07-31T22:45:39.451Z,19.45
2022-07-31T22:50:43.581Z,19.42
2022-07-31T22:55:47.972Z,19.39
2022-07-31T23:00:52.145Z,19.35
2022-07-31T23:06:03.673Z,19.37
2022-07-31T23:11:00.283Z,19.28
2022-07-31T23:16:02.523Z,19.25
2022-07-31T23:21:08.366Z,19.22
2022-07-31T23:26:09.193Z,19.20
2022-07-31T23:31:13.105Z,19.18
2022-07-31T23:36:15.404Z,19.14
2022-07-31T23:41:19.521Z,19.12
2022-07-31T23:46:26.590Z,19.10
2022-07-31T23:51:27.872Z,19.07
2022-07-31T23:56:31.987Z,19.07
